sensor_id;sensor_type;location;lat;lon;timestamp;P1;durP1;ratioP1;P2;durP2;ratioP2
20245;SDS011;10281;54.406;18.556;2023-05-24T00:02:16;5.27;;;4.77;;
20245;SDS011;10281;54.406;18.556;2023-05-24T00:04:42;5.93;;;4.57;;
20245;SDS011;10281;54.406;18.556;2023-05-24T00:07:10;6.30;;;5.20;;
20245;SDS011;10281;54.406;18.556;2023-05-24T00:09:37;7.53;;;5.27;;
20245;SDS011;10281;54.406;18.556;2023-05-24T00:12:04;6.63;;;5.10;;
20245;SDS011;10281;54.406;18.556;2023-05-24T00:14:31;6.97;;;5.07;;
20245;SDS011;10281;54.406;18.556;2023-05-24T00:16:57;8.30;;;5.50;;
20245;SDS011;10281;54.406;18.556;2023-05-24T00:19:24;9.77;;;6.30;;
20245;SDS011;10281;54.406;18.556;2023-05-24T00:21:52;8.37;;;5.43;;
20245;SDS011;10281;54.406;18.556;2023-05-24T00:24:18;6.37;;;5.43;;
20245;SDS011;10281;54.406;18.556;2023-05-24T00:26:45;7.70;;;6.30;;
20245;SDS011;10281;54.406;18.556;2023-05-24T00:29:13;8.40;;;5.43;;
20245;SDS011;10281;54.406;18.556;2023-05-24T00:31:39;7.53;;;5.50;;
20245;SDS011;10281;54.406;18.556;2023-05-24T00:34:06;7.30;;;5.57;;
20245;SDS011;10281;54.406;18.556;2023-05-24T00:36:33;8.13;;;6.50;;
20245;SDS011;10281;54.406;18.556;2023-05-24T00:38:59;7.83;;;6.10;;
20245;SDS011;10281;54.406;18.556;2023-05-24T00:41:26;7.47;;;5.83;;
20245;SDS011;10281;54.406;18.556;2023-05-24T00:43:52;8.17;;;6.20;;
20245;SDS011;10281;54.406;18.556;2023-05-24T00:46:21;9.23;;;5.97;;
20245;SDS011;10281;54.406;18.556;2023-05-24T00:48:54;8.33;;;5.67;;
20245;SDS011;10281;54.406;18.556;2023-05-24T00:51:21;7.40;;;6.67;;
20245;SDS011;10281;54.406;18.556;2023-05-24T00:53:48;7.70;;;6.30;;
20245;SDS011;10281;54.406;18.556;2023-05-24T00:56:15;9.40;;;6.87;;
20245;SDS011;10281;54.406;18.556;2023-05-24T00:58:43;7.30;;;6.50;;
20245;SDS011;10281;54.406;18.556;2023-05-24T01:01:10;8.10;;;6.67;;
20245;SDS011;10281;54.406;18.556;2023-05-24T01:03:38;8.47;;;6.27;;
20245;SDS011;10281;54.406;18.556;2023-05-24T01:06:06;7.40;;;5.83;;
20245;SDS011;10281;54.406;18.556;2023-05-24T01:08:42;6.90;;;5.73;;
20245;SDS011;10281;54.406;18.556;2023-05-24T01:11:22;10.77;;;6.30;;
20245;SDS011;10281;54.406;18.556;2023-05-24T01:14:03;7.00;;;6.00;;
20245;SDS011;10281;54.406;18.556;2023-05-24T01:16:40;10.20;;;5.90;;
20245;SDS011;10281;54.406;18.556;2023-05-24T01:19:21;9.07;;;6.17;;
20245;SDS011;10281;54.406;18.556;2023-05-24T01:21:58;9.70;;;6.60;;
20245;SDS011;10281;54.406;18.556;2023-05-24T01:24:38;7.97;;;6.17;;
20245;SDS011;10281;54.406;18.556;2023-05-24T01:27:22;7.13;;;6.43;;
20245;SDS011;10281;54.406;18.556;2023-05-24T01:29:50;9.47;;;5.80;;
20245;SDS011;10281;54.406;18.556;2023-05-24T01:32:18;7.40;;;6.70;;
20245;SDS011;10281;54.406;18.556;2023-05-24T01:34:45;7.00;;;6.30;;
20245;SDS011;10281;54.406;18.556;2023-05-24T01:37:12;7.77;;;6.87;;
20245;SDS011;10281;54.406;18.556;2023-05-24T01:39:39;7.93;;;6.20;;
20245;SDS011;10281;54.406;18.556;2023-05-24T01:42:08;7.83;;;5.70;;
20245;SDS011;10281;54.406;18.556;2023-05-24T01:44:43;7.40;;;6.60;;
20245;SDS011;10281;54.406;18.556;2023-05-24T01:50:34;8.47;;;6.33;;
20245;SDS011;10281;54.406;18.556;2023-05-24T01:52:47;9.63;;;6.80;;
20245;SDS011;10281;54.406;18.556;2023-05-24T01:55:17;10.53;;;6.27;;
20245;SDS011;10281;54.406;18.556;2023-05-24T01:57:44;7.90;;;6.47;;
20245;SDS011;10281;54.406;18.556;2023-05-24T02:00:13;8.37;;;6.87;;
20245;SDS011;10281;54.406;18.556;2023-05-24T02:02:42;10.90;;;6.50;;
20245;SDS011;10281;54.406;18.556;2023-05-24T02:05:09;7.13;;;6.43;;
20245;SDS011;10281;54.406;18.556;2023-05-24T02:07:36;7.60;;;6.40;;
20245;SDS011;10281;54.406;18.556;2023-05-24T02:10:03;7.37;;;6.67;;
20245;SDS011;10281;54.406;18.556;2023-05-24T02:12:30;6.80;;;6.10;;
20245;SDS011;10281;54.406;18.556;2023-05-24T02:14:57;6.97;;;5.87;;
20245;SDS011;10281;54.406;18.556;2023-05-24T02:17:24;7.40;;;6.40;;
20245;SDS011;10281;54.406;18.556;2023-05-24T02:19:52;9.03;;;6.87;;
20245;SDS011;10281;54.406;18.556;2023-05-24T02:22:18;7.40;;;6.63;;
20245;SDS011;10281;54.406;18.556;2023-05-24T02:24:47;8.33;;;6.17;;
20245;SDS011;10281;54.406;18.556;2023-05-24T02:27:13;8.40;;;6.50;;
20245;SDS011;10281;54.406;18.556;2023-05-24T02:29:40;9.13;;;6.93;;
20245;SDS011;10281;54.406;18.556;2023-05-24T02:32:07;7.90;;;6.77;;
20245;SDS011;10281;54.406;18.556;2023-05-24T02:34:33;9.07;;;6.50;;
20245;SDS011;10281;54.406;18.556;2023-05-24T02:37:00;7.70;;;6.53;;
20245;SDS011;10281;54.406;18.556;2023-05-24T02:39:27;7.63;;;6.77;;
20245;SDS011;10281;54.406;18.556;2023-05-24T02:41:53;9.30;;;6.93;;
20245;SDS011;10281;54.406;18.556;2023-05-24T02:44:20;7.20;;;6.50;;
20245;SDS011;10281;54.406;18.556;2023-05-24T02:46:46;10.03;;;7.07;;
20245;SDS011;10281;54.406;18.556;2023-05-24T02:49:13;7.90;;;7.10;;
20245;SDS011;10281;54.406;18.556;2023-05-24T02:51:40;11.47;;;7.00;;
20245;SDS011;10281;54.406;18.556;2023-05-24T02:54:06;7.83;;;7.03;;
20245;SDS011;10281;54.406;18.556;2023-05-24T02:56:33;8.10;;;6.83;;
20245;SDS011;10281;54.406;18.556;2023-05-24T02:58:59;8.00;;;7.10;;
20245;SDS011;10281;54.406;18.556;2023-05-24T03:01:27;7.97;;;7.17;;
20245;SDS011;10281;54.406;18.556;2023-05-24T03:03:53;7.80;;;6.60;;
20245;SDS011;10281;54.406;18.556;2023-05-24T03:06:20;8.43;;;6.30;;
20245;SDS011;10281;54.406;18.556;2023-05-24T03:08:47;7.23;;;6.47;;
20245;SDS011;10281;54.406;18.556;2023-05-24T03:11:14;9.60;;;6.60;;
20245;SDS011;10281;54.406;18.556;2023-05-24T03:13:41;8.27;;;6.57;;
20245;SDS011;10281;54.406;18.556;2023-05-24T03:16:08;8.30;;;7.00;;
20245;SDS011;10281;54.406;18.556;2023-05-24T03:18:35;6.87;;;6.20;;
20245;SDS011;10281;54.406;18.556;2023-05-24T03:21:02;7.20;;;6.50;;
20245;SDS011;10281;54.406;18.556;2023-05-24T03:23:28;7.87;;;6.10;;
20245;SDS011;10281;54.406;18.556;2023-05-24T03:25:55;7.87;;;6.30;;
20245;SDS011;10281;54.406;18.556;2023-05-24T03:28:21;8.07;;;6.00;;
20245;SDS011;10281;54.406;18.556;2023-05-24T03:30:48;7.67;;;5.83;;
20245;SDS011;10281;54.406;18.556;2023-05-24T03:33:15;7.97;;;6.03;;
20245;SDS011;10281;54.406;18.556;2023-05-24T03:35:42;6.50;;;5.90;;
20245;SDS011;10281;54.406;18.556;2023-05-24T03:38:09;7.80;;;5.70;;
20245;SDS011;10281;54.406;18.556;2023-05-24T03:40:35;8.83;;;6.33;;
20245;SDS011;10281;54.406;18.556;2023-05-24T03:43:03;6.47;;;5.87;;
20245;SDS011;10281;54.406;18.556;2023-05-24T03:45:30;7.67;;;5.83;;
20245;SDS011;10281;54.406;18.556;2023-05-24T03:47:56;6.73;;;5.40;;
20245;SDS011;10281;54.406;18.556;2023-05-24T03:50:23;9.07;;;5.80;;
20245;SDS011;10281;54.406;18.556;2023-05-24T03:52:49;8.27;;;6.30;;
20245;SDS011;10281;54.406;18.556;2023-05-24T03:55:17;6.73;;;5.70;;
20245;SDS011;10281;54.406;18.556;2023-05-24T03:57:43;8.67;;;5.70;;
20245;SDS011;10281;54.406;18.556;2023-05-24T04:00:10;8.40;;;5.93;;
20245;SDS011;10281;54.406;18.556;2023-05-24T04:02:37;7.10;;;6.40;;
20245;SDS011;10281;54.406;18.556;2023-05-24T04:05:04;8.53;;;6.40;;
20245;SDS011;10281;54.406;18.556;2023-05-24T04:07:38;7.60;;;6.90;;
20245;SDS011;10281;54.406;18.556;2023-05-24T04:10:05;8.97;;;6.43;;
20245;SDS011;10281;54.406;18.556;2023-05-24T04:12:33;7.60;;;6.73;;
20245;SDS011;10281;54.406;18.556;2023-05-24T04:15:00;7.90;;;6.87;;
20245;SDS011;10281;54.406;18.556;2023-05-24T04:17:26;8.67;;;6.47;;
20245;SDS011;10281;54.406;18.556;2023-05-24T04:19:55;8.97;;;6.57;;
20245;SDS011;10281;54.406;18.556;2023-05-24T04:22:21;8.10;;;6.30;;
20245;SDS011;10281;54.406;18.556;2023-05-24T04:24:48;6.77;;;6.07;;
20245;SDS011;10281;54.406;18.556;2023-05-24T04:27:15;6.87;;;6.07;;
20245;SDS011;10281;54.406;18.556;2023-05-24T04:29:43;8.73;;;6.00;;
20245;SDS011;10281;54.406;18.556;2023-05-24T04:32:12;7.17;;;5.63;;
20245;SDS011;10281;54.406;18.556;2023-05-24T04:34:39;6.27;;;5.67;;
20245;SDS011;10281;54.406;18.556;2023-05-24T04:37:07;7.07;;;6.03;;
20245;SDS011;10281;54.406;18.556;2023-05-24T04:39:34;7.43;;;6.13;;
20245;SDS011;10281;54.406;18.556;2023-05-24T04:42:00;7.73;;;5.80;;
20245;SDS011;10281;54.406;18.556;2023-05-24T04:44:27;6.67;;;6.07;;
20245;SDS011;10281;54.406;18.556;2023-05-24T04:46:54;6.57;;;5.80;;
20245;SDS011;10281;54.406;18.556;2023-05-24T04:49:22;8.30;;;5.40;;
20245;SDS011;10281;54.406;18.556;2023-05-24T04:51:48;7.90;;;5.90;;
20245;SDS011;10281;54.406;18.556;2023-05-24T04:54:15;7.93;;;6.20;;
20245;SDS011;10281;54.406;18.556;2023-05-24T04:56:42;8.83;;;6.00;;
20245;SDS011;10281;54.406;18.556;2023-05-24T04:59:09;8.70;;;5.83;;
20245;SDS011;10281;54.406;18.556;2023-05-24T05:01:35;8.17;;;6.07;;
20245;SDS011;10281;54.406;18.556;2023-05-24T05:04:02;6.93;;;6.23;;
20245;SDS011;10281;54.406;18.556;2023-05-24T05:06:29;8.50;;;6.47;;
20245;SDS011;10281;54.406;18.556;2023-05-24T05:08:56;8.00;;;6.13;;
20245;SDS011;10281;54.406;18.556;2023-05-24T05:11:22;7.93;;;6.37;;
20245;SDS011;10281;54.406;18.556;2023-05-24T05:13:50;6.57;;;5.97;;
20245;SDS011;10281;54.406;18.556;2023-05-24T05:16:17;6.30;;;5.70;;
20245;SDS011;10281;54.406;18.556;2023-05-24T05:18:44;14.93;;;6.90;;
20245;SDS011;10281;54.406;18.556;2023-05-24T05:21:11;16.10;;;6.70;;
20245;SDS011;10281;54.406;18.556;2023-05-24T05:23:39;9.93;;;6.20;;
20245;SDS011;10281;54.406;18.556;2023-05-24T05:26:06;7.77;;;6.57;;
20245;SDS011;10281;54.406;18.556;2023-05-24T05:28:32;7.00;;;6.40;;
20245;SDS011;10281;54.406;18.556;2023-05-24T05:30:59;6.70;;;6.00;;
20245;SDS011;10281;54.406;18.556;2023-05-24T05:33:25;9.53;;;6.00;;
20245;SDS011;10281;54.406;18.556;2023-05-24T05:35:52;7.47;;;5.43;;
20245;SDS011;10281;54.406;18.556;2023-05-24T05:38:19;8.53;;;6.27;;
20245;SDS011;10281;54.406;18.556;2023-05-24T05:40:45;8.40;;;6.43;;
20245;SDS011;10281;54.406;18.556;2023-05-24T05:43:12;11.93;;;5.90;;
20245;SDS011;10281;54.406;18.556;2023-05-24T05:45:38;11.27;;;6.67;;
20245;SDS011;10281;54.406;18.556;2023-05-24T05:48:05;9.00;;;6.50;;
20245;SDS011;10281;54.406;18.556;2023-05-24T05:50:32;8.17;;;6.30;;
20245;SDS011;10281;54.406;18.556;2023-05-24T05:52:58;10.60;;;6.67;;
20245;SDS011;10281;54.406;18.556;2023-05-24T05:55:25;10.87;;;6.87;;
20245;SDS011;10281;54.406;18.556;2023-05-24T05:57:51;11.27;;;7.33;;
20245;SDS011;10281;54.406;18.556;2023-05-24T06:00:18;9.83;;;7.77;;
20245;SDS011;10281;54.406;18.556;2023-05-24T06:02:47;9.60;;;7.37;;
20245;SDS011;10281;54.406;18.556;2023-05-24T06:05:14;13.63;;;8.23;;
20245;SDS011;10281;54.406;18.556;2023-05-24T06:07:41;9.23;;;7.37;;
20245;SDS011;10281;54.406;18.556;2023-05-24T06:10:08;11.83;;;7.77;;
20245;SDS011;10281;54.406;18.556;2023-05-24T06:12:35;10.00;;;7.57;;
20245;SDS011;10281;54.406;18.556;2023-05-24T06:15:03;11.07;;;8.27;;
20245;SDS011;10281;54.406;18.556;2023-05-24T06:17:31;8.20;;;6.73;;
20245;SDS011;10281;54.406;18.556;2023-05-24T06:19:59;11.47;;;6.63;;
20245;SDS011;10281;54.406;18.556;2023-05-24T06:22:25;11.17;;;7.00;;
20245;SDS011;10281;54.406;18.556;2023-05-24T06:24:54;11.23;;;6.80;;
20245;SDS011;10281;54.406;18.556;2023-05-24T06:27:21;9.67;;;6.30;;
20245;SDS011;10281;54.406;18.556;2023-05-24T06:29:48;8.70;;;6.27;;
20245;SDS011;10281;54.406;18.556;2023-05-24T06:32:14;10.20;;;5.70;;
20245;SDS011;10281;54.406;18.556;2023-05-24T06:34:41;7.60;;;5.57;;
20245;SDS011;10281;54.406;18.556;2023-05-24T06:37:08;9.17;;;5.33;;
20245;SDS011;10281;54.406;18.556;2023-05-24T06:39:35;5.70;;;5.00;;
20245;SDS011;10281;54.406;18.556;2023-05-24T06:42:02;5.47;;;4.73;;
20245;SDS011;10281;54.406;18.556;2023-05-24T06:44:29;7.87;;;5.10;;
20245;SDS011;10281;54.406;18.556;2023-05-24T06:46:57;7.37;;;4.93;;
20245;SDS011;10281;54.406;18.556;2023-05-24T06:49:24;5.97;;;4.80;;
20245;SDS011;10281;54.406;18.556;2023-05-24T06:51:51;6.40;;;4.30;;
20245;SDS011;10281;54.406;18.556;2023-05-24T06:54:18;9.70;;;4.20;;
20245;SDS011;10281;54.406;18.556;2023-05-24T06:56:45;7.07;;;4.60;;
20245;SDS011;10281;54.406;18.556;2023-05-24T06:59:11;8.80;;;4.73;;
20245;SDS011;10281;54.406;18.556;2023-05-24T07:01:38;8.77;;;4.67;;
20245;SDS011;10281;54.406;18.556;2023-05-24T07:04:07;5.03;;;4.20;;
20245;SDS011;10281;54.406;18.556;2023-05-24T07:06:34;7.77;;;4.93;;
20245;SDS011;10281;54.406;18.556;2023-05-24T07:09:02;6.23;;;4.73;;
20245;SDS011;10281;54.406;18.556;2023-05-24T07:11:29;5.13;;;4.17;;
20245;SDS011;10281;54.406;18.556;2023-05-24T07:13:56;6.13;;;4.20;;
20245;SDS011;10281;54.406;18.556;2023-05-24T07:16:23;8.03;;;4.50;;
20245;SDS011;10281;54.406;18.556;2023-05-24T07:18:50;4.33;;;3.93;;
20245;SDS011;10281;54.406;18.556;2023-05-24T07:21:16;7.50;;;4.33;;
20245;SDS011;10281;54.406;18.556;2023-05-24T07:23:43;6.00;;;3.87;;
20245;SDS011;10281;54.406;18.556;2023-05-24T07:26:10;6.30;;;4.43;;
20245;SDS011;10281;54.406;18.556;2023-05-24T07:28:37;5.80;;;4.10;;
20245;SDS011;10281;54.406;18.556;2023-05-24T07:31:05;6.63;;;4.50;;
20245;SDS011;10281;54.406;18.556;2023-05-24T07:33:33;6.83;;;4.27;;
20245;SDS011;10281;54.406;18.556;2023-05-24T07:36:05;11.57;;;4.20;;
20245;SDS011;10281;54.406;18.556;2023-05-24T07:38:33;7.30;;;3.97;;
20245;SDS011;10281;54.406;18.556;2023-05-24T07:41:01;7.27;;;3.70;;
20245;SDS011;10281;54.406;18.556;2023-05-24T07:43:29;6.00;;;4.70;;
20245;SDS011;10281;54.406;18.556;2023-05-24T07:45:55;6.47;;;4.37;;
20245;SDS011;10281;54.406;18.556;2023-05-24T07:48:22;5.43;;;4.17;;
20245;SDS011;10281;54.406;18.556;2023-05-24T07:50:49;7.30;;;4.37;;
20245;SDS011;10281;54.406;18.556;2023-05-24T07:53:17;8.13;;;4.77;;
20245;SDS011;10281;54.406;18.556;2023-05-24T07:55:44;6.33;;;4.33;;
20245;SDS011;10281;54.406;18.556;2023-05-24T07:58:11;5.53;;;4.43;;
20245;SDS011;10281;54.406;18.556;2023-05-24T08:00:38;8.07;;;4.77;;
20245;SDS011;10281;54.406;18.556;2023-05-24T08:03:05;5.67;;;4.60;;
20245;SDS011;10281;54.406;18.556;2023-05-24T08:05:32;4.80;;;4.30;;
20245;SDS011;10281;54.406;18.556;2023-05-24T08:07:59;5.80;;;4.33;;
20245;SDS011;10281;54.406;18.556;2023-05-24T08:10:25;4.20;;;3.80;;
20245;SDS011;10281;54.406;18.556;2023-05-24T08:12:52;5.60;;;4.57;;
20245;SDS011;10281;54.406;18.556;2023-05-24T08:15:20;6.83;;;4.57;;
20245;SDS011;10281;54.406;18.556;2023-05-24T08:17:47;10.73;;;4.77;;
20245;SDS011;10281;54.406;18.556;2023-05-24T08:20:14;4.90;;;4.37;;
20245;SDS011;10281;54.406;18.556;2023-05-24T08:22:42;6.47;;;4.50;;
20245;SDS011;10281;54.406;18.556;2023-05-24T08:25:09;9.33;;;4.57;;
20245;SDS011;10281;54.406;18.556;2023-05-24T08:27:36;8.50;;;4.50;;
20245;SDS011;10281;54.406;18.556;2023-05-24T08:30:03;7.77;;;4.40;;
20245;SDS011;10281;54.406;18.556;2023-05-24T08:32:30;5.53;;;4.47;;
20245;SDS011;10281;54.406;18.556;2023-05-24T08:34:57;7.47;;;4.30;;
20245;SDS011;10281;54.406;18.556;2023-05-24T08:37:24;6.63;;;4.43;;
20245;SDS011;10281;54.406;18.556;2023-05-24T08:39:51;7.47;;;5.17;;
20245;SDS011;10281;54.406;18.556;2023-05-24T08:42:18;8.57;;;4.90;;
20245;SDS011;10281;54.406;18.556;2023-05-24T08:44:46;7.27;;;4.60;;
20245;SDS011;10281;54.406;18.556;2023-05-24T08:47:16;7.53;;;5.33;;
20245;SDS011;10281;54.406;18.556;2023-05-24T08:49:46;7.37;;;4.53;;
20245;SDS011;10281;54.406;18.556;2023-05-24T08:52:13;8.53;;;5.00;;
20245;SDS011;10281;54.406;18.556;2023-05-24T08:54:40;6.67;;;5.13;;
20245;SDS011;10281;54.406;18.556;2023-05-24T08:57:08;7.43;;;5.03;;
20245;SDS011;10281;54.406;18.556;2023-05-24T08:59:39;9.80;;;5.50;;
20245;SDS011;10281;54.406;18.556;2023-05-24T09:02:09;7.27;;;6.07;;
20245;SDS011;10281;54.406;18.556;2023-05-24T09:04:38;9.03;;;5.40;;
20245;SDS011;10281;54.406;18.556;2023-05-24T09:07:06;7.43;;;5.23;;
20245;SDS011;10281;54.406;18.556;2023-05-24T09:09:33;6.97;;;5.50;;
20245;SDS011;10281;54.406;18.556;2023-05-24T09:12:03;11.70;;;5.73;;
20245;SDS011;10281;54.406;18.556;2023-05-24T09:14:33;6.63;;;4.90;;
20245;SDS011;10281;54.406;18.556;2023-05-24T09:16:59;7.40;;;4.90;;
20245;SDS011;10281;54.406;18.556;2023-05-24T09:19:27;6.13;;;4.87;;
20245;SDS011;10281;54.406;18.556;2023-05-24T09:21:53;5.20;;;4.70;;
20245;SDS011;10281;54.406;18.556;2023-05-24T09:24:22;6.03;;;5.17;;
20245;SDS011;10281;54.406;18.556;2023-05-24T09:26:49;10.53;;;5.67;;
20245;SDS011;10281;54.406;18.556;2023-05-24T09:29:16;9.03;;;5.50;;
20245;SDS011;10281;54.406;18.556;2023-05-24T09:31:49;6.87;;;5.67;;
20245;SDS011;10281;54.406;18.556;2023-05-24T09:34:19;5.50;;;5.00;;
20245;SDS011;10281;54.406;18.556;2023-05-24T09:36:46;5.73;;;5.10;;
20245;SDS011;10281;54.406;18.556;2023-05-24T09:39:13;19.47;;;5.77;;
20245;SDS011;10281;54.406;18.556;2023-05-24T09:41:42;6.13;;;5.00;;
20245;SDS011;10281;54.406;18.556;2023-05-24T09:44:11;9.93;;;5.70;;
20245;SDS011;10281;54.406;18.556;2023-05-24T09:46:39;6.53;;;5.40;;
20245;SDS011;10281;54.406;18.556;2023-05-24T09:49:06;7.20;;;5.13;;
20245;SDS011;10281;54.406;18.556;2023-05-24T09:51:35;7.40;;;5.00;;
20245;SDS011;10281;54.406;18.556;2023-05-24T09:54:04;6.50;;;5.40;;
20245;SDS011;10281;54.406;18.556;2023-05-24T09:56:32;6.93;;;5.27;;
20245;SDS011;10281;54.406;18.556;2023-05-24T09:59:04;9.10;;;5.70;;
20245;SDS011;10281;54.406;18.556;2023-05-24T10:01:32;8.37;;;6.07;;
20245;SDS011;10281;54.406;18.556;2023-05-24T10:04:00;8.13;;;5.20;;
20245;SDS011;10281;54.406;18.556;2023-05-24T10:06:28;7.93;;;6.10;;
20245;SDS011;10281;54.406;18.556;2023-05-24T10:08:58;8.20;;;6.30;;
20245;SDS011;10281;54.406;18.556;2023-05-24T10:11:25;6.97;;;5.57;;
20245;SDS011;10281;54.406;18.556;2023-05-24T10:13:52;7.17;;;5.57;;
20245;SDS011;10281;54.406;18.556;2023-05-24T10:16:18;9.47;;;5.40;;
20245;SDS011;10281;54.406;18.556;2023-05-24T10:18:46;7.70;;;5.67;;
20245;SDS011;10281;54.406;18.556;2023-05-24T10:21:12;7.23;;;4.87;;
20245;SDS011;10281;54.406;18.556;2023-05-24T10:23:40;6.83;;;4.83;;
20245;SDS011;10281;54.406;18.556;2023-05-24T10:26:10;8.63;;;5.33;;
20245;SDS011;10281;54.406;18.556;2023-05-24T10:28:40;6.57;;;5.03;;
20245;SDS011;10281;54.406;18.556;2023-05-24T10:31:10;7.07;;;5.17;;
20245;SDS011;10281;54.406;18.556;2023-05-24T10:33:45;6.90;;;5.07;;
20245;SDS011;10281;54.406;18.556;2023-05-24T10:36:13;7.63;;;4.90;;
20245;SDS011;10281;54.406;18.556;2023-05-24T10:38:41;6.67;;;5.13;;
20245;SDS011;10281;54.406;18.556;2023-05-24T10:41:08;6.23;;;4.80;;
20245;SDS011;10281;54.406;18.556;2023-05-24T10:43:38;6.47;;;5.87;;
20245;SDS011;10281;54.406;18.556;2023-05-24T10:46:07;8.77;;;5.43;;
20245;SDS011;10281;54.406;18.556;2023-05-24T10:48:35;8.83;;;5.07;;
20245;SDS011;10281;54.406;18.556;2023-05-24T10:51:37;6.10;;;5.03;;
20245;SDS011;10281;54.406;18.556;2023-05-24T10:54:09;6.50;;;5.57;;
20245;SDS011;10281;54.406;18.556;2023-05-24T10:56:49;6.67;;;5.50;;
20245;SDS011;10281;54.406;18.556;2023-05-24T11:01:54;10.73;;;6.60;;
20245;SDS011;10281;54.406;18.556;2023-05-24T11:04:22;8.40;;;5.43;;
20245;SDS011;10281;54.406;18.556;2023-05-24T11:06:53;6.03;;;5.10;;
20245;SDS011;10281;54.406;18.556;2023-05-24T11:09:22;6.37;;;5.60;;
20245;SDS011;10281;54.406;18.556;2023-05-24T11:11:53;6.70;;;5.60;;
20245;SDS011;10281;54.406;18.556;2023-05-24T11:14:22;7.70;;;5.63;;
20245;SDS011;10281;54.406;18.556;2023-05-24T11:16:51;7.97;;;5.47;;
20245;SDS011;10281;54.406;18.556;2023-05-24T11:19:19;6.70;;;5.60;;
20245;SDS011;10281;54.406;18.556;2023-05-24T11:21:50;6.00;;;5.40;;
20245;SDS011;10281;54.406;18.556;2023-05-24T11:24:19;6.20;;;5.60;;
20245;SDS011;10281;54.406;18.556;2023-05-24T11:26:46;7.30;;;5.37;;
20245;SDS011;10281;54.406;18.556;2023-05-24T11:29:13;9.53;;;6.27;;
20245;SDS011;10281;54.406;18.556;2023-05-24T11:31:46;9.83;;;5.77;;
20245;SDS011;10281;54.406;18.556;2023-05-24T11:34:15;7.03;;;5.17;;
20245;SDS011;10281;54.406;18.556;2023-05-24T11:36:42;6.60;;;5.57;;
20245;SDS011;10281;54.406;18.556;2023-05-24T11:39:11;6.63;;;5.60;;
20245;SDS011;10281;54.406;18.556;2023-05-24T11:41:39;8.83;;;5.27;;
20245;SDS011;10281;54.406;18.556;2023-05-24T11:44:07;6.53;;;5.47;;
20245;SDS011;10281;54.406;18.556;2023-05-24T11:46:35;7.47;;;5.33;;
20245;SDS011;10281;54.406;18.556;2023-05-24T11:49:03;8.13;;;6.10;;
20245;SDS011;10281;54.406;18.556;2023-05-24T11:51:32;5.50;;;5.00;;
20245;SDS011;10281;54.406;18.556;2023-05-24T11:54:00;8.50;;;5.43;;
20245;SDS011;10281;54.406;18.556;2023-05-24T11:56:28;8.03;;;5.00;;
20245;SDS011;10281;54.406;18.556;2023-05-24T11:59:02;7.23;;;5.30;;
20245;SDS011;10281;54.406;18.556;2023-05-24T12:01:40;7.40;;;5.87;;
20245;SDS011;10281;54.406;18.556;2023-05-24T12:04:07;6.13;;;5.40;;
20245;SDS011;10281;54.406;18.556;2023-05-24T12:06:35;6.53;;;5.10;;
20245;SDS011;10281;54.406;18.556;2023-05-24T12:09:05;9.37;;;5.07;;
20245;SDS011;10281;54.406;18.556;2023-05-24T12:11:36;7.20;;;5.00;;
20245;SDS011;10281;54.406;18.556;2023-05-24T12:14:04;5.43;;;4.93;;
20245;SDS011;10281;54.406;18.556;2023-05-24T12:16:31;7.90;;;5.10;;
20245;SDS011;10281;54.406;18.556;2023-05-24T12:18:58;7.67;;;5.27;;
20245;SDS011;10281;54.406;18.556;2023-05-24T12:21:28;6.10;;;4.90;;
20245;SDS011;10281;54.406;18.556;2023-05-24T12:23:56;7.93;;;4.73;;
20245;SDS011;10281;54.406;18.556;2023-05-24T12:26:22;6.53;;;5.43;;
20245;SDS011;10281;54.406;18.556;2023-05-24T12:28:51;7.90;;;5.33;;
20245;SDS011;10281;54.406;18.556;2023-05-24T12:31:19;8.57;;;5.13;;
20245;SDS011;10281;54.406;18.556;2023-05-24T12:33:46;12.20;;;6.17;;
20245;SDS011;10281;54.406;18.556;2023-05-24T12:36:13;6.77;;;5.37;;
20245;SDS011;10281;54.406;18.556;2023-05-24T12:38:40;6.67;;;6.00;;
20245;SDS011;10281;54.406;18.556;2023-05-24T12:41:06;7.37;;;5.90;;
20245;SDS011;10281;54.406;18.556;2023-05-24T12:43:35;7.57;;;6.70;;
20245;SDS011;10281;54.406;18.556;2023-05-24T12:46:03;9.00;;;6.13;;
20245;SDS011;10281;54.406;18.556;2023-05-24T12:48:30;7.77;;;6.47;;
20245;SDS011;10281;54.406;18.556;2023-05-24T12:50:56;7.30;;;6.23;;
20245;SDS011;10281;54.406;18.556;2023-05-24T12:53:23;10.57;;;6.33;;
20245;SDS011;10281;54.406;18.556;2023-05-24T12:55:50;10.07;;;6.73;;
20245;SDS011;10281;54.406;18.556;2023-05-24T12:58:19;9.63;;;6.63;;
20245;SDS011;10281;54.406;18.556;2023-05-24T13:00:45;7.67;;;6.63;;
20245;SDS011;10281;54.406;18.556;2023-05-24T13:03:14;9.70;;;6.60;;
20245;SDS011;10281;54.406;18.556;2023-05-24T13:05:41;7.60;;;6.70;;
20245;SDS011;10281;54.406;18.556;2023-05-24T13:08:07;9.27;;;5.93;;
20245;SDS011;10281;54.406;18.556;2023-05-24T13:10:34;8.07;;;6.43;;
20245;SDS011;10281;54.406;18.556;2023-05-24T13:13:01;7.07;;;5.73;;
20245;SDS011;10281;54.406;18.556;2023-05-24T13:15:28;7.90;;;6.93;;
20245;SDS011;10281;54.406;18.556;2023-05-24T13:17:55;8.00;;;6.60;;
20245;SDS011;10281;54.406;18.556;2023-05-24T13:20:21;11.80;;;5.87;;
20245;SDS011;10281;54.406;18.556;2023-05-24T13:22:49;9.87;;;6.30;;
20245;SDS011;10281;54.406;18.556;2023-05-24T13:25:15;7.83;;;5.97;;
20245;SDS011;10281;54.406;18.556;2023-05-24T13:27:42;8.07;;;6.00;;
20245;SDS011;10281;54.406;18.556;2023-05-24T13:30:09;8.03;;;6.53;;
20245;SDS011;10281;54.406;18.556;2023-05-24T13:32:37;8.13;;;6.37;;
20245;SDS011;10281;54.406;18.556;2023-05-24T13:35:03;6.37;;;5.77;;
20245;SDS011;10281;54.406;18.556;2023-05-24T13:37:30;8.47;;;5.60;;
20245;SDS011;10281;54.406;18.556;2023-05-24T13:39:57;7.63;;;5.73;;
20245;SDS011;10281;54.406;18.556;2023-05-24T13:42:24;7.80;;;6.10;;
20245;SDS011;10281;54.406;18.556;2023-05-24T13:44:50;9.87;;;6.43;;
20245;SDS011;10281;54.406;18.556;2023-05-24T13:47:19;7.00;;;5.93;;
20245;SDS011;10281;54.406;18.556;2023-05-24T13:49:46;8.07;;;5.87;;
20245;SDS011;10281;54.406;18.556;2023-05-24T13:52:13;7.63;;;5.47;;
20245;SDS011;10281;54.406;18.556;2023-05-24T13:54:39;8.73;;;6.07;;
20245;SDS011;10281;54.406;18.556;2023-05-24T13:57:06;7.20;;;5.87;;
20245;SDS011;10281;54.406;18.556;2023-05-24T13:59:32;6.70;;;6.00;;
20245;SDS011;10281;54.406;18.556;2023-05-24T14:01:59;8.80;;;5.47;;
20245;SDS011;10281;54.406;18.556;2023-05-24T14:04:26;6.30;;;5.70;;
20245;SDS011;10281;54.406;18.556;2023-05-24T14:06:54;11.00;;;6.40;;
20245;SDS011;10281;54.406;18.556;2023-05-24T14:09:21;7.43;;;5.70;;
20245;SDS011;10281;54.406;18.556;2023-05-24T14:11:51;7.03;;;6.00;;
20245;SDS011;10281;54.406;18.556;2023-05-24T14:14:18;9.73;;;6.30;;
20245;SDS011;10281;54.406;18.556;2023-05-24T14:16:45;6.03;;;5.47;;
20245;SDS011;10281;54.406;18.556;2023-05-24T14:19:14;7.97;;;6.03;;
20245;SDS011;10281;54.406;18.556;2023-05-24T14:21:41;7.50;;;5.73;;
20245;SDS011;10281;54.406;18.556;2023-05-24T14:24:08;6.93;;;5.93;;
20245;SDS011;10281;54.406;18.556;2023-05-24T14:26:35;8.97;;;6.13;;
20245;SDS011;10281;54.406;18.556;2023-05-24T14:29:01;6.03;;;5.43;;
20245;SDS011;10281;54.406;18.556;2023-05-24T14:31:28;7.80;;;6.00;;
20245;SDS011;10281;54.406;18.556;2023-05-24T14:33:55;6.33;;;5.60;;
20245;SDS011;10281;54.406;18.556;2023-05-24T14:36:21;7.83;;;6.20;;
20245;SDS011;10281;54.406;18.556;2023-05-24T14:38:48;6.80;;;5.83;;
20245;SDS011;10281;54.406;18.556;2023-05-24T14:41:14;8.00;;;5.60;;
20245;SDS011;10281;54.406;18.556;2023-05-24T14:43:41;6.43;;;5.80;;